Time;durP1;ratioP1;P1;durP2;ratioP2;P2;SDS_P1;SDS_P2;PMS_P1;PMS_P2;Temp;Humidity;BMP_temperature;BMP_pressure;BME280_temperature;BME280_humidity;BME280_pressure;Samples;Min_cycle;Max_cycle;Signal;HPM_P1;HPM_P2
2024/01/03 00:01:32;;;;;;;20.10;14.80;;;;;;;3.34;95.22;98807.62;215956;1253;66942;-76
2024/01/03 00:06:32;;;;;;;21.40;14.40;;;;;;;3.36;95.16;98808.52;216015;1253;61244;-75
2024/01/03 00:11:28;;;;;;;22.50;14.80;;;;;;;3.35;95.00;98794.62;216104;1253;75295;-75
2024/01/03 00:16:21;;;;;;;22.60;15.20;;;;;;;3.34;95.26;98790.15;216074;1253;72680;-75
2024/01/03 00:21:17;;;;;;;22.70;15.50;;;;;;;3.34;95.10;98787.41;215830;1253;61510;-75
2024/01/03 00:26:11;;;;;;;23.10;16.30;;;;;;;3.34;95.13;98782.29;216364;1253;66448;-76
2024/01/03 00:31:03;;;;;;;23.50;16.60;;;;;;;3.35;95.17;98780.42;216066;1253;61344;-76
2024/01/03 00:35:56;;;;;;;29.20;17.50;;;;;;;3.36;94.95;98769.14;216245;1253;61240;-76
2024/01/03 00:40:57;;;;;;;22.00;16.70;;;;;;;3.35;95.15;98755.08;216240;1256;61204;-77
2024/01/03 00:45:49;;;;;;;28.90;17.00;;;;;;;3.36;95.05;98746.69;216074;1252;61359;-76
2024/01/03 00:50:42;;;;;;;28.90;18.40;;;;;;;3.34;95.01;98742.20;216127;1253;66856;-76
2024/01/03 00:55:34;;;;;;;29.50;19.20;;;;;;;3.33;95.26;98731.58;215986;1252;61577;-76
2024/01/03 01:00:26;;;;;;;23.50;16.70;;;;;;;3.33;95.33;98722.51;216164;1256;61266;-76
2024/01/03 01:05:17;;;;;;;25.70;18.20;;;;;;;3.32;95.30;98714.27;215904;1252;61207;-76
2024/01/03 01:10:09;;;;;;;22.30;16.40;;;;;;;3.32;95.09;98702.27;216036;1255;61276;-75
2024/01/03 01:15:01;;;;;;;24.20;17.30;;;;;;;3.32;95.28;98691.30;216023;1253;61306;-75
2024/01/03 01:19:53;;;;;;;24.60;19.20;;;;;;;3.32;95.13;98678.64;215935;1253;72886;-76
2024/01/03 01:24:44;;;;;;;23.80;16.60;;;;;;;3.32;94.98;98671.63;216065;1253;61222;-76
2024/01/03 01:29:35;;;;;;;24.90;18.30;;;;;;;3.33;95.25;98662.40;216051;1253;61195;-76
2024/01/03 01:34:27;;;;;;;25.50;18.10;;;;;;;3.32;95.11;98651.94;216111;1252;70790;-76
2024/01/03 01:39:19;;;;;;;24.50;17.50;;;;;;;3.31;95.07;98643.87;216110;1253;61317;-76
2024/01/03 01:44:11;;;;;;;24.50;17.40;;;;;;;3.31;95.19;98637.88;216000;1253;61257;-76
2024/01/03 01:49:04;;;;;;;22.90;18.30;;;;;;;3.29;95.39;98622.60;215996;1252;61236;-76
2024/01/03 01:53:56;;;;;;;24.40;17.20;;;;;;;3.29;95.27;98612.53;216163;1255;65658;-76
2024/01/03 01:58:50;;;;;;;26.90;16.50;;;;;;;3.28;95.18;98605.65;216144;1253;61452;-76
2024/01/03 02:03:41;;;;;;;24.50;16.40;;;;;;;3.27;95.00;98605.98;216083;1253;61365;-76
2024/01/03 02:08:33;;;;;;;23.00;15.60;;;;;;;3.28;95.30;98594.52;216100;1255;61313;-76
2024/01/03 02:13:25;;;;;;;22.30;16.80;;;;;;;3.29;95.36;98585.11;216119;1253;61231;-76
2024/01/03 02:18:18;;;;;;;25.00;15.70;;;;;;;3.29;95.21;98577.23;216075;1252;71691;-76
2024/01/03 02:23:10;;;;;;;25.30;17.00;;;;;;;3.30;95.25;98571.08;215958;1253;61232;-76
2024/01/03 02:28:02;;;;;;;23.90;17.20;;;;;;;3.31;95.37;98563.21;216028;1253;61209;-76
2024/01/03 02:32:53;;;;;;;24.10;16.50;;;;;;;3.31;95.26;98558.59;216287;1252;61375;-76
2024/01/03 02:37:45;;;;;;;23.70;15.80;;;;;;;3.32;95.34;98551.23;216313;1253;65794;-76
2024/01/03 02:42:37;;;;;;;23.70;15.30;;;;;;;3.31;95.08;98547.30;216036;1253;61358;-75
2024/01/03 02:47:28;;;;;;;21.30;15.80;;;;;;;3.32;95.26;98546.10;216327;1253;61276;-75
2024/01/03 02:52:20;;;;;;;23.30;16.10;;;;;;;3.30;95.44;98540.61;216204;1252;61401;-75
2024/01/03 02:57:11;;;;;;;22.10;14.90;;;;;;;3.30;95.23;98531.19;216244;1253;61303;-76
2024/01/03 03:02:03;;;;;;;20.60;15.10;;;;;;;3.30;95.24;98526.73;216156;1253;61279;-75
2024/01/03 03:06:54;;;;;;;20.30;14.40;;;;;;;3.31;95.42;98518.69;216195;1253;74392;-75
2024/01/03 03:11:46;;;;;;;15.80;13.00;;;;;;;3.31;95.45;98511.16;216203;1255;61231;-75
2024/01/03 03:16:38;;;;;;;17.10;11.00;;;;;;;3.32;95.31;98505.35;216125;1255;61264;-75
2024/01/03 03:21:30;;;;;;;18.60;13.30;;;;;;;3.32;95.57;98493.89;216173;1253;61831;-75
2024/01/03 03:26:21;;;;;;;16.90;11.40;;;;;;;3.32;95.43;98485.32;216082;1253;61213;-75
2024/01/03 03:31:13;;;;;;;16.40;12.20;;;;;;;3.33;95.58;98478.48;216251;1253;61358;-75
2024/01/03 03:36:14;;;;;;;14.10;11.40;;;;;;;3.33;95.28;98470.60;216071;1253;61276;-75
2024/01/03 03:41:10;;;;;;;15.10;10.80;;;;;;;3.33;95.53;98464.27;216220;1253;66130;-75
2024/01/03 03:46:02;;;;;;;13.30;10.40;;;;;;;3.33;95.56;98454.85;215996;1253;61239;-75
2024/01/03 03:50:53;;;;;;;13.10;9.90;;;;;;;3.33;95.47;98450.23;216193;1253;61256;-75
2024/01/03 03:55:45;;;;;;;13.50;10.80;;;;;;;3.33;95.45;98442.52;216103;1253;61950;-76
2024/01/03 04:00:36;;;;;;;14.10;10.10;;;;;;;3.34;95.49;98434.65;216217;1253;75685;-75
2024/01/03 04:05:28;;;;;;;15.10;9.30;;;;;;;3.34;95.41;98425.74;216073;1253;61331;-75
2024/01/03 04:10:19;;;;;;;15.40;9.60;;;;;;;3.34;95.41;98420.26;216064;1253;61360;-76
2024/01/03 04:15:11;;;;;;;11.90;9.30;;;;;;;3.33;95.28;98413.58;216169;1253;72539;-75
2024/01/03 04:20:03;;;;;;;15.00;9.40;;;;;;;3.31;95.40;98405.84;216198;1253;61270;-75
2024/01/03 04:24:54;;;;;;;10.80;8.30;;;;;;;3.31;95.70;98396.10;216093;1253;61378;-76
2024/01/03 04:29:45;;;;;;;13.70;10.40;;;;;;;3.33;95.51;98391.84;216174;1253;61297;-75
2024/01/03 04:34:40;;;;;;;13.50;9.60;;;;;;;3.34;95.67;98387.55;216075;1253;61199;-75
2024/01/03 04:39:33;;;;;;;10.50;9.20;;;;;;;3.35;95.57;98380.55;216184;1256;61260;-75
2024/01/03 04:44:24;;;;;;;12.90;9.40;;;;;;;3.36;95.55;98373.89;216110;1253;61472;-75
2024/01/03 04:49:16;;;;;;;12.00;9.50;;;;;;;3.37;95.74;98367.55;215992;1253;61296;-75
2024/01/03 04:54:08;;;;;;;12.90;9.40;;;;;;;3.36;95.68;98364.30;216309;1253;61842;-76
2024/01/03 04:59:00;;;;;;;13.90;10.80;;;;;;;3.38;95.93;98360.20;216145;1253;73506;-75
2024/01/03 05:03:51;;;;;;;13.40;9.90;;;;;;;3.39;95.66;98358.15;216182;1253;61354;-75
2024/01/03 05:08:43;;;;;;;12.20;9.50;;;;;;;3.40;95.69;98357.13;215904;1253;61342;-75
2024/01/03 05:13:34;;;;;;;14.90;9.50;;;;;;;3.41;95.54;98354.05;216178;1252;61215;-75
2024/01/03 05:18:27;;;;;;;13.60;10.60;;;;;;;3.41;95.77;98344.45;216138;1253;61281;-75
2024/01/03 05:23:18;;;;;;;13.50;10.00;;;;;;;3.41;95.74;98341.88;216299;1253;61358;-75
2024/01/03 05:28:10;;;;;;;11.70;9.50;;;;;;;3.42;95.85;98337.62;216190;1255;61283;-75
2024/01/03 05:33:03;;;;;;;15.00;10.40;;;;;;;3.42;95.91;98332.66;216198;1253;61353;-75
2024/01/03 05:37:54;;;;;;;12.80;10.00;;;;;;;3.43;95.63;98327.02;216108;1253;61264;-75
2024/01/03 05:42:46;;;;;;;18.20;10.50;;;;;;;3.44;95.75;98324.96;216200;1253;61257;-75
2024/01/03 05:47:38;;;;;;;13.30;10.50;;;;;;;3.46;95.63;98319.48;215961;1257;75152;-75
2024/01/03 05:52:29;;;;;;;12.70;9.50;;;;;;;3.47;95.83;98320.52;216173;1253;61357;-75
2024/01/03 05:57:21;;;;;;;12.30;10.90;;;;;;;3.47;95.97;98318.80;216147;1253;61341;-75
2024/01/03 06:02:12;;;;;;;14.30;10.60;;;;;;;3.47;95.65;98318.13;216083;1255;72358;-76
2024/01/03 06:07:04;;;;;;;14.10;10.30;;;;;;;3.47;95.87;98313.67;216080;1253;61255;-75
2024/01/03 06:11:55;;;;;;;14.60;11.10;;;;;;;3.49;96.09;98310.44;216112;1253;61349;-75
2024/01/03 06:16:47;;;;;;;14.10;10.30;;;;;;;3.49;95.95;98310.95;216283;1253;61248;-75
2024/01/03 06:21:39;;;;;;;13.90;11.70;;;;;;;3.49;96.19;98305.80;216257;1253;61349;-75
2024/01/03 06:26:32;;;;;;;17.10;11.10;;;;;;;3.51;96.02;98302.05;216288;1253;61273;-75
2024/01/03 06:31:24;;;;;;;17.40;13.00;;;;;;;3.53;96.02;98298.65;216246;1253;65834;-75
2024/01/03 06:36:15;;;;;;;15.80;12.30;;;;;;;3.54;96.20;98298.84;216228;1253;61244;-75
2024/01/03 06:41:08;;;;;;;16.50;12.00;;;;;;;3.54;96.00;98291.46;216269;1252;62179;-75
2024/01/03 06:45:59;;;;;;;15.80;12.70;;;;;;;3.55;96.04;98291.11;216284;1253;61282;-75
2024/01/03 06:50:51;;;;;;;18.80;12.90;;;;;;;3.56;96.07;98284.79;216190;1253;61322;-75
2024/01/03 06:55:43;;;;;;;20.30;13.80;;;;;;;3.57;96.02;98281.88;216184;1256;61240;-75
2024/01/03 07:00:35;;;;;;;16.90;13.30;;;;;;;3.58;95.88;98277.61;216141;1253;74571;-75
2024/01/03 07:05:26;;;;;;;15.30;12.90;;;;;;;3.58;96.17;98272.14;215925;1253;61333;-74
2024/01/03 07:10:18;;;;;;;14.40;12.20;;;;;;;3.60;96.26;98270.25;216112;1253;61267;-74
2024/01/03 07:15:10;;;;;;;14.70;11.90;;;;;;;3.61;96.27;98264.79;216023;1253;73045;-74
2024/01/03 07:20:01;;;;;;;15.40;12.30;;;;;;;3.62;96.12;98262.71;215934;1253;61249;-74
2024/01/03 07:24:53;;;;;;;17.70;13.40;;;;;;;3.63;96.12;98259.13;216131;1253;61353;-75
2024/01/03 07:29:49;;;;;;;19.20;15.10;;;;;;;3.66;96.29;98254.02;215895;1253;62908;-74
2024/01/03 07:34:40;;;;;;;19.30;14.10;;;;;;;3.68;96.30;98252.66;216067;1253;65944;-74
2024/01/03 07:39:32;;;;;;;16.40;13.90;;;;;;;3.72;96.36;98244.27;215968;1253;61381;-75
2024/01/03 07:44:24;;;;;;;16.90;14.60;;;;;;;3.75;96.33;98241.90;215785;1253;61437;-75
2024/01/03 07:49:16;;;;;;;16.70;13.90;;;;;;;3.78;96.20;98240.36;216017;1255;61246;-76
2024/01/03 07:54:09;;;;;;;20.10;15.50;;;;;;;3.81;96.12;98239.52;215720;1253;414609;-71
2024/01/03 07:59:01;;;;;;;17.60;15.10;;;;;;;3.84;96.38;98235.94;215935;1253;61238;-72
2024/01/03 08:03:54;;;;;;;19.80;15.10;;;;;;;3.87;96.24;98227.38;215955;1253;61255;-71
2024/01/03 08:08:45;;;;;;;19.90;14.00;;;;;;;3.90;96.16;98226.70;216251;1253;72571;-71
2024/01/03 08:13:37;;;;;;;18.00;13.70;;;;;;;3.92;96.35;98225.17;216150;1253;61360;-71
2024/01/03 08:18:28;;;;;;;16.90;13.50;;;;;;;3.95;96.07;98222.09;216019;1253;61296;-71
2024/01/03 08:23:20;;;;;;;16.90;14.00;;;;;;;3.98;96.27;98224.49;216166;1253;61230;-71
2024/01/03 08:28:11;;;;;;;16.50;13.90;;;;;;;4.00;96.24;98222.11;216093;1253;61328;-71
2024/01/03 08:33:03;;;;;;;17.50;14.70;;;;;;;4.03;96.47;98222.11;216115;1253;64248;-71
2024/01/03 08:37:54;;;;;;;17.90;14.50;;;;;;;4.06;96.33;98217.49;216109;1253;65633;-72
2024/01/03 08:42:46;;;;;;;16.40;12.90;;;;;;;4.10;96.33;98217.85;216035;1254;61254;-71
2024/01/03 08:47:37;;;;;;;15.00;11.40;;;;;;;4.14;96.39;98218.04;215961;1256;61250;-71
2024/01/03 08:52:29;;;;;;;15.80;12.80;;;;;;;4.18;96.38;98210.33;216112;1253;61352;-71
2024/01/03 08:57:20;;;;;;;16.70;14.40;;;;;;;4.19;96.37;98199.87;215988;1253;61326;-72
2024/01/03 09:02:11;;;;;;;15.00;13.10;;;;;;;4.24;96.32;98188.40;216082;1253;61898;-70
2024/01/03 09:07:03;;;;;;;17.20;13.00;;;;;;;4.29;96.52;98197.15;216033;1253;74476;-70
2024/01/03 09:11:55;;;;;;;14.60;12.20;;;;;;;4.32;96.57;98194.08;216042;1253;61279;-71
2024/01/03 09:16:46;;;;;;;14.40;12.30;;;;;;;4.35;96.54;98196.30;215945;1253;62396;-71
2024/01/03 09:21:45;;;;;;;14.80;12.80;;;;;;;4.36;96.52;98195.27;216029;1255;73301;-70
2024/01/03 09:26:37;;;;;;;14.30;12.30;;;;;;;4.40;96.67;98194.24;215972;1253;61366;-70
2024/01/03 09:31:30;;;;;;;14.80;12.70;;;;;;;4.45;96.49;98190.32;216024;1253;61276;-71
2024/01/03 09:36:22;;;;;;;15.60;12.90;;;;;;;4.50;96.53;98182.09;216099;1253;61284;-70
2024/01/03 09:41:20;;;;;;;13.90;12.20;;;;;;;4.55;96.51;98178.48;215915;1253;75128;-71
2024/01/03 09:46:12;;;;;;;20.00;13.00;;;;;;;4.61;96.51;98173.86;216061;1253;61323;-70
2024/01/03 09:51:04;;;;;;;12.00;10.00;;;;;;;4.64;96.56;98165.45;216071;1254;61203;-70
2024/01/03 09:55:55;;;;;;;13.80;10.60;;;;;;;4.66;96.66;98165.11;216066;1253;61263;-69
2024/01/03 10:00:47;;;;;;;11.80;10.20;;;;;;;4.71;96.70;98159.61;216251;1253;61271;-72
2024/01/03 10:05:39;;;;;;;11.40;9.80;;;;;;;4.75;96.76;98160.46;216153;1255;61345;-71
2024/01/03 10:10:33;;;;;;;12.50;8.90;;;;;;;4.80;96.80;98158.23;215858;1256;61304;-71
2024/01/03 10:15:31;;;;;;;10.40;9.30;;;;;;;4.83;96.76;98157.89;215994;1256;63399;-71
2024/01/03 10:20:27;;;;;;;;;;;;;;;4.87;96.91;98149.81;216146;1254;72403;-71
2024/01/03 10:25:18;;;;;;;11.00;9.80;;;;;;;4.90;96.83;98151.02;216086;1254;61262;-71
2024/01/03 10:30:14;;;;;;;13.70;11.10;;;;;;;4.93;96.97;98158.73;216105;1255;61283;-70
2024/01/03 10:35:15;;;;;;;12.40;10.60;;;;;;;5.01;96.84;98155.63;216219;1253;61219;-71
2024/01/03 10:40:08;;;;;;;14.20;12.70;;;;;;;5.07;96.92;98143.77;216033;1253;74651;-70
2024/01/03 10:44:59;;;;;;;16.30;14.40;;;;;;;5.08;96.84;98139.64;216072;1253;71325;-71
2024/01/03 10:49:51;;;;;;;15.80;13.10;;;;;;;5.06;97.09;98139.30;216117;1253;63355;-71
2024/01/03 10:54:46;;;;;;;14.20;12.30;;;;;;;5.03;97.09;98132.79;216047;1255;61247;-72
2024/01/03 10:59:53;;;;;;;19.50;14.40;;;;;;;5.02;97.09;98126.79;216109;1254;61305;-72
2024/01/03 11:05:05;;;;;;;16.40;14.60;;;;;;;5.01;97.36;98116.65;216065;1254;65631;-72
2024/01/03 11:09:57;;;;;;;16.10;13.40;;;;;;;5.00;97.35;98114.95;216114;1256;61263;-72
2024/01/03 11:14:49;;;;;;;19.60;15.80;;;;;;;5.00;97.48;98110.98;216038;1256;61238;-73
2024/01/03 11:19:44;;;;;;;22.70;18.80;;;;;;;5.02;97.53;98106.87;216053;1254;72438;-72
2024/01/03 11:24:43;;;;;;;22.40;17.30;;;;;;;5.03;97.64;98109.62;216058;1254;61207;-71
2024/01/03 11:29:34;;;;;;;22.50;17.10;;;;;;;5.05;97.67;98101.88;216045;1254;67588;-73
2024/01/03 11:34:45;;;;;;;19.60;15.40;;;;;;;5.06;97.67;98091.23;216051;1254;61308;-72
2024/01/03 11:39:43;;;;;;;17.80;14.50;;;;;;;5.08;97.78;98095.86;216053;1256;73935;-73
2024/01/03 11:44:35;;;;;;;22.30;16.80;;;;;;;5.11;97.78;98091.91;215885;1255;71396;-71
2024/01/03 11:49:26;;;;;;;20.70;16.10;;;;;;;5.16;97.77;98091.02;216106;1254;61993;-71
2024/01/03 11:54:18;;;;;;;20.10;15.60;;;;;;;5.23;97.84;98087.73;216260;1254;61206;-72
2024/01/03 11:59:11;;;;;;;21.20;16.50;;;;;;;5.27;97.85;98087.91;216228;1254;61378;-72
2024/01/03 12:04:10;;;;;;;19.90;15.00;;;;;;;5.31;97.82;98087.36;215896;1254;61370;-71
2024/01/03 12:09:03;;;;;;;20.90;16.40;;;;;;;5.34;97.89;98095.95;216099;1256;61256;-70
2024/01/03 12:13:55;;;;;;;21.30;17.40;;;;;;;5.43;97.95;98092.64;216054;1255;61230;-71
2024/01/03 12:18:52;;;;;;;19.30;15.50;;;;;;;5.62;97.73;98083.45;216022;1253;61361;-71
2024/01/03 12:23:59;;;;;;;20.50;18.00;;;;;;;5.69;97.84;98083.74;215995;1256;61299;-71
2024/01/03 12:28:54;;;;;;;19.00;15.60;;;;;;;5.79;97.74;98089.02;215989;1256;67087;-71
2024/01/03 12:33:47;;;;;;;18.80;15.20;;;;;;;5.89;97.82;98089.48;216076;1256;61240;-71
2024/01/03 12:38:40;;;;;;;18.40;14.80;;;;;;;5.98;98.07;98090.98;215987;1255;62788;-73
2024/01/03 12:43:33;;;;;;;16.90;14.00;;;;;;;6.09;98.48;98091.45;216046;1254;61263;-71
2024/01/03 12:48:24;;;;;;;19.30;13.80;;;;;;;6.25;98.73;98092.87;215886;1254;61257;-74
2024/01/03 12:53:16;;;;;;;12.70;9.90;;;;;;;6.35;99.09;98092.45;215858;1254;61249;-71
2024/01/03 12:58:08;;;;;;;15.70;10.40;;;;;;;6.51;99.65;98088.18;216134;1252;61323;-73
2024/01/03 13:02:59;;;;;;;9.80;8.60;;;;;;;6.63;99.90;98087.73;216095;1254;60478;-73
2024/01/03 13:07:51;;;;;;;10.20;5.90;;;;;;;6.71;100.00;98091.96;215878;1254;61366;-71
2024/01/03 13:12:43;;;;;;;7.50;5.20;;;;;;;6.78;100.00;98092.74;216034;1253;65618;-71
2024/01/03 13:17:35;;;;;;;8.80;5.20;;;;;;;6.84;100.00;98101.48;216068;1253;61346;-72
2024/01/03 13:22:27;;;;;;;9.40;6.80;;;;;;;6.86;100.00;98107.98;216058;1256;61337;-71
2024/01/03 13:27:18;;;;;;;9.60;7.60;;;;;;;6.85;100.00;98111.97;216103;1254;61499;-71
2024/01/03 13:32:11;;;;;;;8.80;6.70;;;;;;;6.81;100.00;98116.30;216249;1254;61314;-71
2024/01/03 13:37:03;;;;;;;12.00;5.90;;;;;;;6.81;100.00;98120.77;216238;1254;61203;-71
2024/01/03 13:41:54;;;;;;;7.10;4.70;;;;;;;6.82;100.00;98124.55;216315;1254;61277;-71
2024/01/03 13:46:47;;;;;;;9.30;5.90;;;;;;;6.87;100.00;98127.97;216345;1253;71349;-72
2024/01/03 13:51:39;;;;;;;7.30;5.00;;;;;;;6.93;100.00;98133.25;216097;1254;61362;-71
2024/01/03 13:56:31;;;;;;;6.70;5.20;;;;;;;6.95;100.00;98137.88;216252;1253;61246;-71
2024/01/03 14:01:23;;;;;;;7.60;5.20;;;;;;;6.96;100.00;98138.55;216171;1254;61832;-71
2024/01/03 14:06:15;;;;;;;8.40;6.00;;;;;;;6.95;100.00;98141.67;216190;1254;67088;-71
2024/01/03 14:11:07;;;;;;;10.50;6.90;;;;;;;6.96;100.00;98149.40;216110;1254;61980;-70
2024/01/03 14:15:59;;;;;;;11.30;7.40;;;;;;;6.98;100.00;98148.19;216214;1253;61227;-71
2024/01/03 14:20:51;;;;;;;12.00;7.50;;;;;;;6.97;100.00;98150.42;216098;1254;61371;-71
2024/01/03 14:25:42;;;;;;;7.90;6.20;;;;;;;6.96;100.00;98155.78;216120;1253;61245;-71
2024/01/03 14:30:34;;;;;;;8.50;5.40;;;;;;;6.96;100.00;98159.05;216212;1254;61343;-72
2024/01/03 14:35:25;;;;;;;7.50;5.10;;;;;;;6.98;100.00;98163.00;216157;1254;74468;-71
2024/01/03 14:40:16;;;;;;;10.10;4.90;;;;;;;7.00;100.00;98162.98;216150;1254;70550;-72
2024/01/03 14:45:09;;;;;;;9.50;4.90;;;;;;;6.98;100.00;98162.32;216259;1254;61345;-71
2024/01/03 14:50:00;;;;;;;7.60;4.70;;;;;;;6.98;100.00;98168.67;216049;1253;71798;-71
2024/01/03 14:54:52;;;;;;;7.40;3.50;;;;;;;6.99;100.00;98169.53;216198;1254;61320;-72
2024/01/03 14:59:44;;;;;;;5.40;2.80;;;;;;;6.96;100.00;98175.06;216200;1254;61325;-72
2024/01/03 15:04:38;;;;;;;2.80;2.20;;;;;;;6.93;100.00;98182.69;216222;1253;61243;-70
2024/01/03 15:09:31;;;;;;;4.00;3.30;;;;;;;6.86;100.00;98195.99;216201;1253;66867;-70
2024/01/03 15:14:22;;;;;;;3.70;2.00;;;;;;;6.81;100.00;98199.98;216249;1253;61340;-71
2024/01/03 15:19:15;;;;;;;3.70;2.10;;;;;;;6.78;100.00;98206.05;216263;1254;61428;-71
2024/01/03 15:24:07;;;;;;;6.30;2.60;;;;;;;6.76;100.00;98209.85;216165;1253;61311;-71
2024/01/03 15:29:01;;;;;;;8.20;3.30;;;;;;;6.73;100.00;98214.17;216038;1253;74783;-70
2024/01/03 15:33:52;;;;;;;5.60;2.90;;;;;;;6.72;100.00;98215.73;216124;1253;61275;-72
2024/01/03 15:38:44;;;;;;;5.20;2.80;;;;;;;6.70;100.00;98214.73;216139;1253;61247;-71
2024/01/03 15:43:36;;;;;;;5.70;2.90;;;;;;;6.67;100.00;98212.48;216197;1253;72079;-71
2024/01/03 15:48:28;;;;;;;5.20;3.00;;;;;;;6.64;100.00;98213.02;216034;1254;64520;-70
2024/01/03 15:53:21;;;;;;;3.90;2.80;;;;;;;6.62;100.00;98217.36;216143;1252;61223;-71
2024/01/03 15:58:12;;;;;;;3.40;2.60;;;;;;;6.60;100.00;98223.90;216094;1253;61311;-71
2024/01/03 16:03:05;;;;;;;6.50;3.40;;;;;;;6.59;100.00;98223.57;216138;1253;65622;-71
2024/01/03 16:07:57;;;;;;;10.00;8.30;;;;;;;6.57;100.00;98225.48;216098;1253;61262;-71
2024/01/03 16:12:49;;;;;;;13.90;9.40;;;;;;;6.52;100.00;98233.09;216140;1255;61426;-71
2024/01/03 16:18:06;;;;;;;12.40;10.40;;;;;;;6.47;100.00;98215.91;216056;1253;61237;-72
2024/01/03 16:23:01;;;;;;;20.60;15.50;;;;;;;6.43;100.00;98216.63;215888;1253;72259;-72
2024/01/03 16:27:53;;;;;;;18.30;15.00;;;;;;;6.39;100.00;98217.86;216116;1253;71929;-71
2024/01/03 16:32:44;;;;;;;18.20;14.70;;;;;;;6.34;99.95;98216.86;216058;1253;61296;-71
2024/01/03 16:37:36;;;;;;;17.30;14.80;;;;;;;6.31;99.94;98213.24;215968;1253;61155;-71
2024/01/03 16:42:28;;;;;;;21.40;15.70;;;;;;;6.28;99.92;98217.40;216129;1253;61801;-71
2024/01/03 16:47:19;;;;;;;19.80;15.00;;;;;;;6.24;99.91;98213.98;215974;1253;61286;-72
2024/01/03 16:52:11;;;;;;;21.70;16.80;;;;;;;6.21;100.00;98209.53;216089;1253;61246;-72
2024/01/03 16:57:05;;;;;;;21.90;17.70;;;;;;;6.18;100.00;98206.95;216075;1253;66844;-72
2024/01/03 17:01:56;;;;;;;22.10;16.60;;;;;;;6.16;100.00;98203.71;215979;1252;61322;-72
2024/01/03 17:06:48;;;;;;;23.00;16.60;;;;;;;6.13;100.00;98194.61;216016;1253;61430;-72
2024/01/03 17:11:40;;;;;;;24.80;18.20;;;;;;;6.10;100.00;98197.02;216012;1253;61286;-72
2024/01/03 17:16:33;;;;;;;21.30;16.20;;;;;;;6.08;100.00;98195.84;215793;1253;75087;-72
2024/01/03 17:21:25;;;;;;;22.10;16.30;;;;;;;6.06;100.00;98201.70;215998;1253;72436;-71
2024/01/03 17:26:21;;;;;;;22.50;17.70;;;;;;;6.05;100.00;98209.10;216141;1256;61869;-71
2024/01/03 17:31:12;;;;;;;22.50;16.10;;;;;;;6.04;100.00;98209.09;216060;1253;65717;-71
2024/01/03 17:36:05;;;;;;;20.00;16.00;;;;;;;6.03;100.00;98217.88;216080;1254;61246;-72
2024/01/03 17:41:06;;;;;;;23.40;16.90;;;;;;;6.03;100.00;98210.14;216190;1253;75160;-72
2024/01/03 17:45:57;;;;;;;20.90;15.10;;;;;;;6.02;99.98;98205.67;216102;1256;72347;-71
2024/01/03 17:50:48;;;;;;;22.80;18.10;;;;;;;6.00;100.00;98207.41;215981;1252;61657;-72
2024/01/03 17:55:40;;;;;;;24.60;20.50;;;;;;;5.99;100.00;98205.01;216039;1252;61873;-72
2024/01/03 18:00:32;;;;;;;26.20;22.30;;;;;;;6.00;100.00;98198.29;216132;1253;61161;-72
2024/01/03 18:05:23;;;;;;;29.10;21.80;;;;;;;5.98;100.00;98192.63;216080;1252;61787;-72
2024/01/03 18:10:15;;;;;;;24.50;20.90;;;;;;;5.96;99.98;98189.86;215962;1253;61678;-72
2024/01/03 18:15:07;;;;;;;23.60;19.00;;;;;;;5.94;99.96;98191.59;215990;1252;66096;-72
2024/01/03 18:19:59;;;;;;;27.60;22.60;;;;;;;5.90;99.98;98189.55;215997;1253;61197;-72
2024/01/03 18:24:51;;;;;;;37.80;26.90;;;;;;;5.89;100.00;98203.80;216030;1252;61341;-72
2024/01/03 18:29:42;;;;;;;37.10;27.30;;;;;;;5.89;100.00;98199.51;216118;1253;61338;-72
2024/01/03 18:34:33;;;;;;;52.30;37.40;;;;;;;5.88;99.96;98216.19;216126;1253;73285;-72
2024/01/03 18:39:26;;;;;;;45.90;33.40;;;;;;;5.89;100.00;98208.45;215959;1256;61209;-72
2024/01/03 18:44:20;;;;;;;41.80;30.70;;;;;;;5.90;100.00;98204.48;216140;1253;61253;-73
2024/01/03 18:49:12;;;;;;;44.10;31.30;;;;;;;5.91;100.00;98214.11;216088;1253;72582;-73
2024/01/03 18:54:04;;;;;;;49.90;32.50;;;;;;;5.93;100.00;98214.44;215990;1253;61451;-72
2024/01/03 18:58:56;;;;;;;51.00;34.60;;;;;;;5.93;100.00;98221.67;215998;1252;61298;-72
2024/01/03 19:03:51;;;;;;;50.40;33.30;;;;;;;5.93;100.00;98225.80;216067;1255;61263;-72
2024/01/03 19:08:44;;;;;;;40.30;26.10;;;;;;;5.92;99.95;98218.42;215969;1252;61357;-72
2024/01/03 19:13:35;;;;;;;37.90;25.70;;;;;;;5.91;99.92;98213.95;216021;1252;61244;-72
2024/01/03 19:18:27;;;;;;;37.60;26.70;;;;;;;5.91;99.93;98205.69;215885;1253;61621;-73
2024/01/03 19:23:20;;;;;;;40.20;26.20;;;;;;;5.90;99.86;98199.85;216138;1255;72568;-73
2024/01/03 19:28:11;;;;;;;37.60;25.10;;;;;;;5.90;99.83;98196.91;216000;1255;61863;-73
2024/01/03 19:33:03;;;;;;;32.60;24.10;;;;;;;5.89;99.79;98193.33;215920;1253;61352;-73
2024/01/03 19:37:55;;;;;;;42.70;26.40;;;;;;;5.88;99.68;98191.61;216055;1252;61240;-72
2024/01/03 19:42:46;;;;;;;40.40;24.40;;;;;;;5.87;99.69;98190.24;216070;1252;66921;-73
2024/01/03 19:47:38;;;;;;;36.60;22.50;;;;;;;5.85;99.64;98189.56;215904;1254;61355;-73
2024/01/03 19:52:30;;;;;;;30.20;22.00;;;;;;;5.83;99.74;98191.80;215950;1253;167330;-73
2024/01/03 19:57:21;;;;;;;36.90;24.50;;;;;;;5.82;99.72;98196.44;216031;1252;61353;-73
2024/01/03 20:02:13;;;;;;;31.70;23.40;;;;;;;5.81;99.64;98196.79;216044;1252;61333;-73
2024/01/03 20:07:04;;;;;;;35.80;23.40;;;;;;;5.80;99.62;98194.05;216063;1253;61349;-72
2024/01/03 20:11:59;;;;;;;30.20;21.60;;;;;;;5.78;99.56;98194.39;215891;1253;75616;-73
2024/01/03 20:16:51;;;;;;;37.90;23.20;;;;;;;5.75;99.57;98195.09;215925;1253;73615;-73
2024/01/03 20:21:45;;;;;;;31.70;21.80;;;;;;;5.70;99.52;98192.02;215842;1253;61354;-72
2024/01/03 20:26:39;;;;;;;30.40;20.80;;;;;;;5.65;99.60;98194.12;215875;1252;61393;-72
2024/01/03 20:31:38;;;;;;;34.80;20.60;;;;;;;5.61;99.53;98186.57;215858;1253;61277;-72
2024/01/03 20:36:29;;;;;;;25.70;19.10;;;;;;;5.57;99.54;98177.64;215852;1253;73647;-72
2024/01/03 20:41:20;;;;;;;29.20;20.00;;;;;;;5.54;99.50;98178.16;215915;1252;63378;-72
2024/01/03 20:46:12;;;;;;;23.80;19.10;;;;;;;5.52;99.54;98177.48;216074;1253;61263;-72
2024/01/03 20:51:04;;;;;;;29.90;19.80;;;;;;;5.55;99.85;98181.42;216020;1253;72413;-71
2024/01/03 20:55:55;;;;;;;24.70;17.00;;;;;;;5.57;99.73;98180.73;216269;1252;61428;-71
2024/01/03 21:00:47;;;;;;;23.20;16.40;;;;;;;5.57;99.77;98185.89;216084;1252;61226;-72
2024/01/03 21:05:38;;;;;;;30.20;19.20;;;;;;;5.59;99.86;98186.75;216036;1253;61753;-71
2024/01/03 21:10:30;;;;;;;22.50;16.40;;;;;;;5.62;99.97;98182.26;216073;1253;61226;-71
2024/01/03 21:15:22;;;;;;;19.80;14.00;;;;;;;5.68;100.00;98181.89;216061;1255;61352;-71
2024/01/03 21:20:13;;;;;;;19.20;11.10;;;;;;;5.78;100.00;98183.56;216429;1252;65613;-71
2024/01/03 21:25:06;;;;;;;11.80;8.70;;;;;;;5.87;100.00;98177.17;216123;1252;61149;-71
2024/01/03 21:29:58;;;;;;;11.20;6.90;;;;;;;5.93;100.00;98182.81;216021;1252;61360;-71
2024/01/03 21:34:49;;;;;;;12.70;6.90;;;;;;;5.98;100.00;98179.56;216719;1253;61256;-71
2024/01/03 21:39:41;;;;;;;7.60;5.40;;;;;;;6.04;100.00;98179.35;216141;1253;72179;-71
2024/01/03 21:44:32;;;;;;;9.20;5.60;;;;;;;6.06;100.00;98179.16;216045;1253;61929;-71
2024/01/03 21:49:24;;;;;;;7.50;4.90;;;;;;;6.09;100.00;98170.55;216047;1253;61255;-72
2024/01/03 21:54:16;;;;;;;7.00;4.00;;;;;;;6.12;100.00;98162.29;215808;1253;73805;-71
2024/01/03 21:59:08;;;;;;;6.50;3.60;;;;;;;6.15;100.00;98165.70;216063;1252;61363;-72
2024/01/03 22:03:59;;;;;;;6.10;3.50;;;;;;;6.17;100.00;98165.68;215984;1253;61267;-72
2024/01/03 22:08:51;;;;;;;4.00;3.00;;;;;;;6.18;100.00;98162.42;215904;1252;61408;-72
2024/01/03 22:13:42;;;;;;;4.50;3.50;;;;;;;6.20;100.00;98165.32;215965;1253;61189;-71
2024/01/03 22:18:36;;;;;;;5.00;3.20;;;;;;;6.22;100.00;98163.59;216049;1253;61264;-72
2024/01/03 22:23:28;;;;;;;4.60;2.90;;;;;;;6.25;100.00;98162.72;215995;1252;68214;-72
2024/01/03 22:28:22;;;;;;;4.10;3.60;;;;;;;6.27;100.00;98159.60;216017;1255;61299;-71